Time;durP1;ratioP1;P1;durP2;ratioP2;P2;SDS_P1;SDS_P2;PMS_P1;PMS_P2;Temp;Humidity;BMP_temperature;BMP_pressure;BME280_temperature;BME280_humidity;BME280_pressure;Samples;Min_cycle;Max_cycle;Signal;HPM_P1;HPM_P2
2022/04/03 00:00:16;;;;;;;7.32;4.30;;;;;;;;;;5050524;28;20033;-78
2022/04/03 00:02:42;;;;;;;8.73;4.40;;;;;;;;;;5032051;28;20037;-77
2022/04/03 00:05:14;;;;;;;8.95;4.30;;;;;;;;;;5050438;28;20419;-78
2022/04/03 00:07:40;;;;;;;7.65;4.45;;;;;;;;;;5050220;28;20032;-79
2022/04/03 00:10:07;;;;;;;7.40;4.18;;;;;;;;;;5050230;28;20508;-77
2022/04/03 00:12:33;;;;;;;8.40;4.65;;;;;;;;;;5050276;28;20032;-79
2022/04/03 00:14:59;;;;;;;9.20;4.32;;;;;;;;;;5050350;28;20450;-78
2022/04/03 00:17:24;;;;;;;8.95;4.57;;;;;;;;;;5050207;28;20061;-77
2022/04/03 00:19:50;;;;;;;8.60;4.70;;;;;;;;;;5031897;28;20072;-77
2022/04/03 00:22:17;;;;;;;9.15;4.90;;;;;;;;;;5050264;28;20087;-77
2022/04/03 00:24:43;;;;;;;10.15;4.90;;;;;;;;;;5031636;28;20678;-78
2022/04/03 00:27:09;;;;;;;9.20;4.78;;;;;;;;;;5049777;28;20040;-77
2022/04/03 00:29:35;;;;;;;7.97;4.68;;;;;;;;;;5049875;28;20039;-78
2022/04/03 00:32:02;;;;;;;7.47;4.47;;;;;;;;;;5050127;28;20517;-77
2022/04/03 00:34:28;;;;;;;7.72;4.55;;;;;;;;;;5031575;28;20048;-78
2022/04/03 00:36:54;;;;;;;9.75;4.80;;;;;;;;;;5049679;28;20033;-78
2022/04/03 00:39:20;;;;;;;8.38;4.65;;;;;;;;;;5049773;28;20055;-78
2022/04/03 00:41:46;;;;;;;8.88;4.53;;;;;;;;;;5049758;28;20398;-78
2022/04/03 00:44:12;;;;;;;10.27;4.72;;;;;;;;;;5049908;28;20030;-76
2022/04/03 00:46:40;;;;;;;9.10;4.53;;;;;;;;;;5049176;28;20067;-78
2022/04/03 00:49:06;;;;;;;8.18;5.30;;;;;;;;;;5049511;28;20394;-77
2022/04/03 00:51:33;;;;;;;8.52;4.53;;;;;;;;;;5049187;28;20062;-78
2022/04/03 00:53:59;;;;;;;7.40;4.20;;;;;;;;;;5049563;28;20025;-78
2022/04/03 00:56:25;;;;;;;9.63;4.82;;;;;;;;;;5049387;28;20494;-77
2022/04/03 00:58:51;;;;;;;8.82;4.65;;;;;;;;;;5030988;28;20069;-77
2022/04/03 01:01:19;;;;;;;9.57;4.85;;;;;;;;;;5049651;28;20397;-77
2022/04/03 01:03:45;;;;;;;9.07;5.00;;;;;;;;;;5049680;28;20040;-77
2022/04/03 01:06:11;;;;;;;8.80;4.82;;;;;;;;;;5049602;28;20104;-77
2022/04/03 01:08:37;;;;;;;8.13;4.13;;;;;;;;;;5049319;28;20413;-78
2022/04/03 01:11:03;;;;;;;7.90;4.28;;;;;;;;;;5049541;28;20057;-77
2022/04/03 01:13:29;;;;;;;9.75;4.93;;;;;;;;;;5060028;28;20031;-78
2022/04/03 01:15:59;;;;;;;9.35;4.60;;;;;;;;;;5064380;28;20029;-78
2022/04/03 01:18:26;;;;;;;7.88;4.65;;;;;;;;;;5065483;28;20035;-77
2022/04/03 01:20:52;;;;;;;7.70;4.68;;;;;;;;;;5055135;28;20108;-78
2022/04/03 01:23:22;;;;;;;9.88;4.78;;;;;;;;;;5030862;28;20040;-77
2022/04/03 01:25:48;;;;;;;12.82;5.15;;;;;;;;;;5049494;28;20032;-77
2022/04/03 01:28:14;;;;;;;9.20;5.00;;;;;;;;;;5049000;28;20029;-78
2022/04/03 01:30:40;;;;;;;8.05;4.72;;;;;;;;;;5049551;28;20485;-78
2022/04/03 01:33:06;;;;;;;12.27;4.90;;;;;;;;;;5049625;28;20100;-78
2022/04/03 01:35:32;;;;;;;9.98;4.53;;;;;;;;;;5049628;28;20028;-77
2022/04/03 01:37:57;;;;;;;9.35;4.90;;;;;;;;;;5049518;28;20139;-78
2022/04/03 01:40:23;;;;;;;10.07;4.63;;;;;;;;;;5049303;28;20044;-78
2022/04/03 01:42:50;;;;;;;10.85;4.57;;;;;;;;;;5030928;28;20109;-77
2022/04/03 01:45:16;;;;;;;11.43;4.38;;;;;;;;;;5048838;28;20104;-77
2022/04/03 01:47:42;;;;;;;8.35;4.10;;;;;;;;;;5029194;28;20048;-78
2022/04/03 01:50:08;;;;;;;8.43;3.97;;;;;;;;;;5046586;28;20060;-78
2022/04/03 01:52:34;;;;;;;8.90;4.40;;;;;;;;;;5048720;28;20047;-78
2022/04/03 01:55:00;;;;;;;9.13;4.50;;;;;;;;;;5049272;28;20040;-78
2022/04/03 01:57:26;;;;;;;8.13;4.50;;;;;;;;;;5049480;28;20119;-78
2022/04/03 01:59:52;;;;;;;9.60;4.60;;;;;;;;;;5057815;28;20033;-77
2022/04/03 02:02:18;;;;;;;9.63;4.18;;;;;;;;;;5069577;28;20036;-77
2022/04/03 02:04:45;;;;;;;8.00;4.60;;;;;;;;;;5063957;28;20027;-78
2022/04/03 02:07:12;;;;;;;8.80;4.45;;;;;;;;;;5048409;28;20029;-78
2022/04/03 02:09:38;;;;;;;9.00;4.55;;;;;;;;;;5048375;28;20036;-78
2022/04/03 02:12:05;;;;;;;7.13;4.35;;;;;;;;;;5048496;28;20044;-78
2022/04/03 02:14:31;;;;;;;8.88;4.68;;;;;;;;;;5048566;28;20032;-78
2022/04/03 02:16:58;;;;;;;9.32;4.20;;;;;;;;;;5048371;28;20033;-78
2022/04/03 02:19:24;;;;;;;7.78;4.47;;;;;;;;;;5048373;28;20033;-78
2022/04/03 02:21:50;;;;;;;7.72;4.20;;;;;;;;;;5048085;28;20036;-78
2022/04/03 02:24:16;;;;;;;10.15;4.38;;;;;;;;;;5048566;28;20064;-78
2022/04/03 02:26:42;;;;;;;9.27;4.32;;;;;;;;;;5049478;28;20029;-78
2022/04/03 02:29:08;;;;;;;9.18;4.82;;;;;;;;;;5052255;28;20040;-77
2022/04/03 02:31:34;;;;;;;9.25;4.75;;;;;;;;;;5052229;28;20033;-78
2022/04/03 02:34:00;;;;;;;8.88;4.65;;;;;;;;;;5052154;28;20296;-78
2022/04/03 02:36:25;;;;;;;9.73;4.43;;;;;;;;;;5051865;28;20033;-78
2022/04/03 02:38:51;;;;;;;8.70;4.88;;;;;;;;;;5034016;28;20072;-78
2022/04/03 02:41:17;;;;;;;9.07;4.45;;;;;;;;;;5051505;28;20482;-77
2022/04/03 02:43:43;;;;;;;9.90;4.90;;;;;;;;;;5051872;28;20392;-79
2022/04/03 02:46:09;;;;;;;8.85;5.03;;;;;;;;;;5051984;28;20024;-78
2022/04/03 02:48:35;;;;;;;8.38;4.43;;;;;;;;;;5051765;28;20025;-78
2022/04/03 02:51:01;;;;;;;9.85;4.80;;;;;;;;;;5051827;28;20071;-77
2022/04/03 02:53:28;;;;;;;9.93;4.50;;;;;;;;;;5051805;28;20039;-78
2022/04/03 02:55:54;;;;;;;8.52;4.38;;;;;;;;;;5033675;28;20037;-78
2022/04/03 02:58:20;;;;;;;8.60;4.75;;;;;;;;;;5051131;28;20029;-77
2022/04/03 03:00:46;;;;;;;8.52;4.40;;;;;;;;;;5051666;28;20107;-77
2022/04/03 03:03:12;;;;;;;11.50;4.85;;;;;;;;;;5051446;28;20060;-77
2022/04/03 03:05:42;;;;;;;8.32;4.50;;;;;;;;;;5051468;28;20032;-78
2022/04/03 03:08:08;;;;;;;8.80;4.65;;;;;;;;;;5051664;28;20553;-78
2022/04/03 03:10:34;;;;;;;8.10;4.03;;;;;;;;;;5051885;28;20028;-77
2022/04/03 03:13:00;;;;;;;10.43;4.35;;;;;;;;;;5051749;28;20032;-78
2022/04/03 03:15:26;;;;;;;8.80;4.40;;;;;;;;;;5051538;28;20389;-78
2022/04/03 03:17:52;;;;;;;9.68;4.70;;;;;;;;;;5051279;28;20086;-79
2022/04/03 03:20:18;;;;;;;9.10;4.63;;;;;;;;;;5051377;28;20833;-78
2022/04/03 03:22:44;;;;;;;8.88;4.43;;;;;;;;;;5051256;28;20068;-78
2022/04/03 03:25:11;;;;;;;9.00;4.65;;;;;;;;;;5051246;28;20385;-79
2022/04/03 03:27:39;;;;;;;7.82;4.35;;;;;;;;;;5032827;28;20040;-78
2022/04/03 03:30:07;;;;;;;9.82;4.43;;;;;;;;;;5051259;28;20197;-78
2022/04/03 03:32:32;;;;;;;8.75;4.20;;;;;;;;;;5050997;28;20024;-78
2022/04/03 03:34:59;;;;;;;8.90;3.63;;;;;;;;;;5051028;28;20112;-78
2022/04/03 03:37:25;;;;;;;8.50;4.65;;;;;;;;;;5050730;28;20032;-78
2022/04/03 03:39:53;;;;;;;9.38;4.07;;;;;;;;;;5051133;28;20390;-78
2022/04/03 03:42:19;;;;;;;8.57;4.45;;;;;;;;;;5032939;28;20041;-78
2022/04/03 03:44:46;;;;;;;7.05;4.22;;;;;;;;;;5050896;28;20033;-78
2022/04/03 03:47:12;;;;;;;7.28;3.95;;;;;;;;;;5050707;28;20043;-78
2022/04/03 03:49:38;;;;;;;7.70;4.22;;;;;;;;;;5050804;28;20028;-78
2022/04/03 03:52:04;;;;;;;8.10;4.45;;;;;;;;;;5027214;28;20037;-78
2022/04/03 03:54:30;;;;;;;8.25;4.28;;;;;;;;;;5030793;28;20040;-78
2022/04/03 03:56:56;;;;;;;9.32;4.47;;;;;;;;;;5030774;28;20066;-78
2022/04/03 03:59:22;;;;;;;10.75;4.20;;;;;;;;;;5030564;28;20509;-78
2022/04/03 04:01:47;;;;;;;7.93;4.30;;;;;;;;;;5030614;28;20037;-78
2022/04/03 04:04:13;;;;;;;10.10;4.30;;;;;;;;;;5030585;28;20490;-77
2022/04/03 04:06:39;;;;;;;7.45;3.97;;;;;;;;;;5030728;28;20057;-78
2022/04/03 04:09:05;;;;;;;8.35;4.50;;;;;;;;;;5030279;28;20037;-77
2022/04/03 04:11:31;;;;;;;7.53;3.90;;;;;;;;;;5030621;28;20501;-78
2022/04/03 04:13:57;;;;;;;8.20;4.03;;;;;;;;;;5030474;28;20061;-78
2022/04/03 04:16:23;;;;;;;9.45;3.85;;;;;;;;;;5030291;28;20065;-77
2022/04/03 04:18:49;;;;;;;10.20;4.20;;;;;;;;;;5030107;28;20037;-78
2022/04/03 04:21:16;;;;;;;7.55;3.33;;;;;;;;;;5030238;28;20033;-78
2022/04/03 04:23:43;;;;;;;7.55;3.95;;;;;;;;;;5030188;28;20034;-78
2022/04/03 04:26:09;;;;;;;7.10;4.05;;;;;;;;;;5011866;28;20048;-77
2022/04/03 04:28:35;;;;;;;8.20;3.72;;;;;;;;;;5012002;28;20044;-77
2022/04/03 04:31:01;;;;;;;7.82;4.13;;;;;;;;;;5029982;28;20030;-78
2022/04/03 04:33:27;;;;;;;6.95;3.53;;;;;;;;;;5030106;28;20080;-77
2022/04/03 04:35:53;;;;;;;7.03;3.60;;;;;;;;;;5030133;28;20061;-78
2022/04/03 04:38:19;;;;;;;5.80;3.00;;;;;;;;;;5029800;28;20072;-78
2022/04/03 04:40:45;;;;;;;7.55;3.60;;;;;;;;;;5029873;28;20479;-78
2022/04/03 04:43:11;;;;;;;5.90;3.30;;;;;;;;;;5030069;28;20523;-78
2022/04/03 04:45:37;;;;;;;7.18;3.40;;;;;;;;;;5029814;28;20052;-78
2022/04/03 04:48:04;;;;;;;7.38;3.72;;;;;;;;;;5034473;28;20021;-78
2022/04/03 04:50:31;;;;;;;9.93;3.75;;;;;;;;;;5048769;28;20028;-76
2022/04/03 04:52:57;;;;;;;7.03;3.58;;;;;;;;;;5049837;28;20489;-78
2022/04/03 04:55:24;;;;;;;7.72;3.85;;;;;;;;;;5049082;28;20421;-78
2022/04/03 04:57:55;;;;;;;8.43;3.28;;;;;;;;;;5049455;28;20029;-77
2022/04/03 05:00:23;;;;;;;8.13;3.67;;;;;;;;;;5031339;28;20048;-79
2022/04/03 05:02:50;;;;;;;5.85;3.30;;;;;;;;;;5049493;28;20040;-78
2022/04/03 05:05:22;;;;;;;10.68;3.42;;;;;;;;;;5049570;28;20021;-78
2022/04/03 05:07:55;;;;;;;6.57;3.30;;;;;;;;;;5049572;28;20048;-79
2022/04/03 05:10:23;;;;;;;9.30;3.47;;;;;;;;;;5049275;28;20428;-78
2022/04/03 05:12:49;;;;;;;7.82;3.20;;;;;;;;;;5049535;28;20044;-78
2022/04/03 05:15:17;;;;;;;8.48;3.65;;;;;;;;;;5049340;28;20037;-78
2022/04/03 05:17:44;;;;;;;4.95;2.97;;;;;;;;;;5049695;28;20028;-78
2022/04/03 05:20:12;;;;;;;14.77;2.90;;;;;;;;;;5049595;28;20032;-78
2022/04/03 05:22:39;;;;;;;4.97;3.03;;;;;;;;;;5049978;28;20032;-79
2022/04/03 05:25:06;;;;;;;5.70;3.22;;;;;;;;;;5050134;28;20048;-78
2022/04/03 05:27:32;;;;;;;6.15;3.00;;;;;;;;;;5062694;28;20505;-77
2022/04/03 05:29:58;;;;;;;5.82;2.80;;;;;;;;;;5064522;28;20503;-78
2022/04/03 05:32:26;;;;;;;5.60;2.72;;;;;;;;;;5051244;28;20124;-78
2022/04/03 05:34:53;;;;;;;6.38;3.25;;;;;;;;;;5049172;28;20036;-78
2022/04/03 05:37:19;;;;;;;5.70;2.85;;;;;;;;;;5049111;28;20105;-77
2022/04/03 05:39:45;;;;;;;8.82;3.00;;;;;;;;;;5048822;28;20393;-77
2022/04/03 05:42:11;;;;;;;6.35;3.25;;;;;;;;;;5049143;28;20466;-77
2022/04/03 05:44:37;;;;;;;6.03;2.70;;;;;;;;;;5048712;28;20036;-78
2022/04/03 05:47:04;;;;;;;5.90;2.80;;;;;;;;;;5048966;28;20059;-78
2022/04/03 05:49:31;;;;;;;5.72;3.00;;;;;;;;;;5030887;28;20367;-77
2022/04/03 05:51:56;;;;;;;6.95;2.80;;;;;;;;;;5030793;28;20045;-78
2022/04/03 05:54:22;;;;;;;5.85;2.72;;;;;;;;;;5048787;28;20025;-77
2022/04/03 05:56:48;;;;;;;6.55;2.78;;;;;;;;;;5048461;28;20065;-78
2022/04/03 05:59:14;;;;;;;5.30;2.55;;;;;;;;;;5031462;28;20455;-77
2022/04/03 06:01:40;;;;;;;4.90;2.40;;;;;;;;;;5031675;28;20033;-78
2022/04/03 06:04:06;;;;;;;7.18;2.85;;;;;;;;;;5032988;28;20033;-77
2022/04/03 06:06:32;;;;;;;5.25;2.60;;;;;;;;;;5015030;28;20077;-77
2022/04/03 06:08:57;;;;;;;5.00;2.70;;;;;;;;;;5032873;28;20076;-78
2022/04/03 06:11:23;;;;;;;5.55;2.72;;;;;;;;;;5033211;28;20096;-78
2022/04/03 06:13:49;;;;;;;4.63;2.40;;;;;;;;;;5033229;28;20069;-77
2022/04/03 06:16:16;;;;;;;6.30;3.03;;;;;;;;;;5032947;28;20029;-77
2022/04/03 06:18:42;;;;;;;4.95;2.80;;;;;;;;;;5033068;28;20036;-77
2022/04/03 06:21:09;;;;;;;6.15;2.60;;;;;;;;;;5032756;28;20379;-77
2022/04/03 06:23:35;;;;;;;5.25;2.50;;;;;;;;;;5038987;28;20033;-78
2022/04/03 06:26:02;;;;;;;4.57;2.45;;;;;;;;;;5052201;28;20028;-78
2022/04/03 06:28:28;;;;;;;5.53;2.58;;;;;;;;;;5052191;28;20043;-77
2022/04/03 06:30:55;;;;;;;7.75;2.75;;;;;;;;;;5052193;28;20021;-77
2022/04/03 06:33:21;;;;;;;7.63;3.03;;;;;;;;;;5016924;28;20045;-77
2022/04/03 06:35:46;;;;;;;6.88;2.65;;;;;;;;;;5032912;28;20029;-77
2022/04/03 06:38:14;;;;;;;8.00;2.80;;;;;;;;;;5032976;28;20061;-77
2022/04/03 06:40:56;;;;;;;5.05;2.70;;;;;;;;;;5033114;28;20033;-78
2022/04/03 06:43:28;;;;;;;4.97;2.70;;;;;;;;;;5032125;28;20044;-76
2022/04/03 06:45:55;;;;;;;5.47;2.78;;;;;;;;;;5032404;28;20037;-77
2022/04/03 06:48:22;;;;;;;5.95;2.90;;;;;;;;;;5032178;28;20040;-77
2022/04/03 06:50:48;;;;;;;4.88;2.72;;;;;;;;;;5032256;28;20382;-78
2022/04/03 06:53:14;;;;;;;6.30;2.72;;;;;;;;;;5032098;28;20049;-77
2022/04/03 06:55:40;;;;;;;5.88;2.72;;;;;;;;;;5041372;28;20561;-77
2022/04/03 06:58:07;;;;;;;4.65;2.60;;;;;;;;;;5051961;28;20116;-77
2022/04/03 07:00:34;;;;;;;5.95;3.03;;;;;;;;;;5051398;28;20025;-77
2022/04/03 07:03:01;;;;;;;4.63;2.53;;;;;;;;;;5051806;28;20033;-78
2022/04/03 07:05:27;;;;;;;4.93;2.55;;;;;;;;;;5051817;28;20043;-77
2022/04/03 07:07:53;;;;;;;6.72;2.70;;;;;;;;;;5051834;28;20068;-77
2022/04/03 07:10:22;;;;;;;4.30;2.40;;;;;;;;;;5033579;28;20049;-77
2022/04/03 07:12:48;;;;;;;5.90;2.80;;;;;;;;;;5050905;28;20025;-77
2022/04/03 07:15:14;;;;;;;8.27;3.00;;;;;;;;;;5051445;28;20033;-76
2022/04/03 07:17:41;;;;;;;8.80;2.72;;;;;;;;;;5051307;28;20025;-77
2022/04/03 07:20:08;;;;;;;5.05;2.80;;;;;;;;;;5032824;28;20040;-77
2022/04/03 07:22:34;;;;;;;5.47;2.60;;;;;;;;;;5051442;28;20521;-77
2022/04/03 07:25:00;;;;;;;5.93;2.45;;;;;;;;;;5051453;28;20358;-77
2022/04/03 07:27:27;;;;;;;4.90;2.58;;;;;;;;;;5051161;28;20059;-76
2022/04/03 07:29:53;;;;;;;6.22;3.30;;;;;;;;;;5033033;28;20047;-77
2022/04/03 07:32:19;;;;;;;5.68;2.47;;;;;;;;;;5051209;28;20036;-77
2022/04/03 07:34:45;;;;;;;4.53;2.42;;;;;;;;;;5051349;28;20489;-77
2022/04/03 07:37:11;;;;;;;5.88;2.83;;;;;;;;;;5051124;28;20064;-77
2022/04/03 07:39:36;;;;;;;5.97;2.92;;;;;;;;;;5051044;28;20031;-77
2022/04/03 07:42:03;;;;;;;7.53;3.60;;;;;;;;;;5051073;28;20397;-77
2022/04/03 07:44:29;;;;;;;4.60;2.30;;;;;;;;;;5051323;28;20032;-77
2022/04/03 07:46:55;;;;;;;4.95;2.47;;;;;;;;;;5050962;28;20040;-77
2022/04/03 07:49:21;;;;;;;5.80;2.70;;;;;;;;;;5050868;28;20111;-76
2022/04/03 07:51:47;;;;;;;5.63;2.88;;;;;;;;;;5050781;28;20044;-77
2022/04/03 07:54:14;;;;;;;5.20;2.60;;;;;;;;;;5050777;28;20478;-76
2022/04/03 07:56:40;;;;;;;5.05;2.60;;;;;;;;;;5050631;28;20033;-77
2022/04/03 07:59:06;;;;;;;5.85;2.70;;;;;;;;;;5048648;28;20021;-77
2022/04/03 08:01:33;;;;;;;5.55;2.80;;;;;;;;;;5012718;28;20048;-77
2022/04/03 08:03:59;;;;;;;5.90;2.58;;;;;;;;;;5030623;28;20029;-77
2022/04/03 08:06:25;;;;;;;5.95;2.70;;;;;;;;;;5012531;28;20044;-77
2022/04/03 08:08:51;;;;;;;5.43;2.83;;;;;;;;;;5012447;28;20059;-75
2022/04/03 08:11:17;;;;;;;4.32;2.67;;;;;;;;;;5030549;28;20025;-77
2022/04/03 08:13:43;;;;;;;5.35;2.75;;;;;;;;;;5030450;28;20083;-77
2022/04/03 08:16:09;;;;;;;6.63;2.80;;;;;;;;;;5030402;28;20517;-76
2022/04/03 08:18:35;;;;;;;6.97;2.70;;;;;;;;;;5030802;28;20029;-76
2022/04/03 08:21:01;;;;;;;7.20;2.45;;;;;;;;;;5030518;28;20033;-76
2022/04/03 08:23:27;;;;;;;6.03;2.45;;;;;;;;;;5030696;28;20053;-77
2022/04/03 08:25:53;;;;;;;4.53;2.25;;;;;;;;;;5029669;28;20390;-76
2022/04/03 08:28:20;;;;;;;5.63;2.75;;;;;;;;;;5012146;28;20047;-76
2022/04/03 08:30:46;;;;;;;5.78;2.17;;;;;;;;;;5030212;28;20040;-76
2022/04/03 08:33:12;;;;;;;4.82;2.25;;;;;;;;;;5030114;28;20025;-76
2022/04/03 08:35:40;;;;;;;2.72;1.80;;;;;;;;;;5030551;28;20061;-76
2022/04/03 08:38:09;;;;;;;5.03;1.83;;;;;;;;;;5030084;28;20033;-76
2022/04/03 08:40:36;;;;;;;3.70;1.67;;;;;;;;;;5030464;28;20041;-76
2022/04/03 08:43:03;;;;;;;3.03;1.80;;;;;;;;;;5030220;28;20031;-76
2022/04/03 08:45:29;;;;;;;3.28;1.60;;;;;;;;;;5030183;28;20036;-77
2022/04/03 08:48:00;;;;;;;3.13;1.80;;;;;;;;;;5030104;28;20037;-76
2022/04/03 08:50:27;;;;;;;2.53;1.80;;;;;;;;;;5030418;28;20037;-76
2022/04/03 08:52:54;;;;;;;3.53;1.83;;;;;;;;;;5030745;28;20469;-75
2022/04/03 08:55:21;;;;;;;3.35;1.90;;;;;;;;;;5032217;28;20040;-77
2022/04/03 08:57:48;;;;;;;3.70;2.00;;;;;;;;;;5030682;28;20037;-77
2022/04/03 09:00:15;;;;;;;5.03;1.80;;;;;;;;;;5012099;28;20037;-76
2022/04/03 09:02:42;;;;;;;3.92;1.80;;;;;;;;;;5029899;28;20032;-76
2022/04/03 09:05:09;;;;;;;3.28;1.90;;;;;;;;;;5044763;28;20389;-76
2022/04/03 09:07:35;;;;;;;5.20;1.95;;;;;;;;;;5049103;28;20036;-76
2022/04/03 09:10:10;;;;;;;3.70;2.05;;;;;;;;;;5049404;28;20053;-76
2022/04/03 09:12:44;;;;;;;3.20;1.90;;;;;;;;;;5049748;28;20032;-76
2022/04/03 09:15:14;;;;;;;3.42;2.00;;;;;;;;;;5049197;28;20044;-76
2022/04/03 09:17:45;;;;;;;4.28;1.80;;;;;;;;;;5048350;28;20037;-76
2022/04/03 09:20:15;;;;;;;3.72;1.70;;;;;;;;;;5049727;28;20033;-76
2022/04/03 09:22:48;;;;;;;2.03;1.50;;;;;;;;;;5030993;28;20272;-76
2022/04/03 09:25:16;;;;;;;3.42;2.00;;;;;;;;;;5049244;28;20029;-76
2022/04/03 09:28:09;;;;;;;3.80;1.80;;;;;;;;;;5049106;28;20036;-76
2022/04/03 09:30:37;;;;;;;2.00;1.60;;;;;;;;;;5044996;28;20045;-76
2022/04/03 09:33:06;;;;;;;4.65;1.60;;;;;;;;;;5049445;28;20028;-76
2022/04/03 09:35:53;;;;;;;3.53;1.70;;;;;;;;;;5048788;28;20040;-76
2022/04/03 09:38:19;;;;;;;4.55;1.80;;;;;;;;;;5048784;28;20040;-76
2022/04/03 09:40:48;;;;;;;3.60;1.98;;;;;;;;;;5048760;28;20445;-76
2022/04/03 09:43:38;;;;;;;3.05;1.83;;;;;;;;;;5048706;28;20029;-76
2022/04/03 09:46:06;;;;;;;2.90;1.80;;;;;;;;;;5049068;28;20025;-76
2022/04/03 09:48:39;;;;;;;3.47;1.85;;;;;;;;;;5048612;28;20036;-76
2022/04/03 09:51:05;;;;;;;3.50;1.85;;;;;;;;;;5045586;28;20031;-76
2022/04/03 09:53:51;;;;;;;3.47;1.70;;;;;;;;;;5048614;28;20037;-75
2022/04/03 09:56:26;;;;;;;3.38;2.10;;;;;;;;;;5048876;28;20048;-75
2022/04/03 09:58:53;;;;;;;3.33;1.80;;;;;;;;;;5048650;28;20029;-76
2022/04/03 10:01:38;;;;;;;2.30;1.50;;;;;;;;;;5048760;28;20097;-77
2022/04/03 10:04:06;;;;;;;3.35;1.73;;;;;;;;;;5048620;28;20025;-76
2022/04/03 10:06:34;;;;;;;3.92;1.70;;;;;;;;;;5048593;28;20044;-75
2022/04/03 10:09:00;;;;;;;3.28;1.80;;;;;;;;;;5048305;28;20032;-76
2022/04/03 10:11:27;;;;;;;2.55;1.95;;;;;;;;;;5048590;28;20468;-75
2022/04/03 10:13:53;;;;;;;2.95;1.98;;;;;;;;;;5048429;28;20466;-76
2022/04/03 10:16:20;;;;;;;3.38;1.80;;;;;;;;;;5048448;28;20041;-76
2022/04/03 10:18:47;;;;;;;3.85;1.90;;;;;;;;;;5048267;28;20037;-75
2022/04/03 10:21:28;;;;;;;3.78;1.80;;;;;;;;;;5048587;28;20371;-76
2022/04/03 10:24:01;;;;;;;3.92;1.80;;;;;;;;;;5048503;28;20028;-76
2022/04/03 10:26:28;;;;;;;2.97;1.73;;;;;;;;;;5048622;28;20040;-76
2022/04/03 10:28:55;;;;;;;4.72;2.00;;;;;;;;;;5048670;28;20033;-75
2022/04/03 10:31:22;;;;;;;3.70;2.22;;;;;;;;;;5048266;28;20482;-76
2022/04/03 10:33:50;;;;;;;3.63;1.75;;;;;;;;;;5048498;28;20029;-76
2022/04/03 10:36:29;;;;;;;3.10;1.67;;;;;;;;;;5048105;28;20024;-77
2022/04/03 10:39:10;;;;;;;3.10;1.80;;;;;;;;;;5048028;28;20025;-75
2022/04/03 10:41:39;;;;;;;3.95;2.00;;;;;;;;;;5048750;28;20029;-75
2022/04/03 10:44:21;;;;;;;2.78;1.55;;;;;;;;;;5048287;28;20486;-74
2022/04/03 10:47:19;;;;;;;4.70;1.85;;;;;;;;;;5047891;28;20438;-76
2022/04/03 10:50:03;;;;;;;4.20;2.10;;;;;;;;;;5033409;28;20418;-76
2022/04/03 10:52:38;;;;;;;3.30;2.00;;;;;;;;;;5052018;28;20154;-76
2022/04/03 10:55:20;;;;;;;2.13;1.70;;;;;;;;;;5051789;28;20032;-76
2022/04/03 10:58:02;;;;;;;5.25;2.00;;;;;;;;;;5051137;28;20417;-76
2022/04/03 11:00:28;;;;;;;4.57;1.80;;;;;;;;;;5051220;28;20032;-76
2022/04/03 11:02:56;;;;;;;4.75;2.15;;;;;;;;;;5051879;28;20450;-76
2022/04/03 11:05:22;;;;;;;3.55;1.88;;;;;;;;;;5051925;28;20036;-76
2022/04/03 11:08:04;;;;;;;2.30;1.80;;;;;;;;;;5051202;28;20100;-76
2022/04/03 11:10:57;;;;;;;3.40;1.90;;;;;;;;;;5051721;28;20660;-76
2022/04/03 11:13:37;;;;;;;4.78;1.90;;;;;;;;;;5051496;28;20041;-76
2022/04/03 11:16:08;;;;;;;2.93;1.93;;;;;;;;;;5033338;28;20041;-76
2022/04/03 11:18:41;;;;;;;3.85;2.00;;;;;;;;;;5032857;28;20497;-76
2022/04/03 11:21:24;;;;;;;3.15;2.10;;;;;;;;;;5051489;28;20052;-76
2022/04/03 11:24:16;;;;;;;3.53;2.00;;;;;;;;;;5051559;28;20060;-76
2022/04/03 11:26:42;;;;;;;4.50;1.90;;;;;;;;;;5050732;28;20041;-76
2022/04/03 11:29:10;;;;;;;5.72;2.10;;;;;;;;;;5051099;28;20390;-76
2022/04/03 11:31:40;;;;;;;3.13;1.92;;;;;;;;;;5051317;28;20414;-76
2022/04/03 11:34:06;;;;;;;3.63;2.20;;;;;;;;;;5051244;28;20033;-76
2022/04/03 11:36:33;;;;;;;4.40;1.98;;;;;;;;;;5051321;28;20112;-75
2022/04/03 11:39:00;;;;;;;3.80;2.00;;;;;;;;;;5032370;28;20477;-75
2022/04/03 11:41:32;;;;;;;4.82;2.30;;;;;;;;;;5032918;28;20037;-76
2022/04/03 11:44:02;;;;;;;3.50;2.10;;;;;;;;;;5071038;28;20040;-74
2022/04/03 11:46:36;;;;;;;3.47;1.90;;;;;;;;;;5063722;28;20025;-75
2022/04/03 11:49:17;;;;;;;2.35;1.60;;;;;;;;;;5052578;28;20013;-76
2022/04/03 11:51:45;;;;;;;3.47;2.00;;;;;;;;;;5051571;28;20033;-75
2022/04/03 11:54:14;;;;;;;4.97;1.90;;;;;;;;;;5050618;28;20025;-75
2022/04/03 11:56:40;;;;;;;4.07;1.98;;;;;;;;;;5050657;28;20039;-76
2022/04/03 11:59:09;;;;;;;4.82;2.50;;;;;;;;;;5050295;28;20025;-75
2022/04/03 12:01:42;;;;;;;3.90;2.20;;;;;;;;;;5050716;28;20029;-75
2022/04/03 12:04:10;;;;;;;4.25;2.15;;;;;;;;;;5050466;28;20040;-75
2022/04/03 12:06:38;;;;;;;4.65;2.20;;;;;;;;;;5050435;28;20056;-75
2022/04/03 12:09:09;;;;;;;3.08;1.80;;;;;;;;;;5050229;28;20296;-75
2022/04/03 12:11:48;;;;;;;2.50;1.88;;;;;;;;;;5031925;28;20044;-75
2022/04/03 12:14:23;;;;;;;5.20;2.10;;;;;;;;;;5050183;28;20044;-74
2022/04/03 12:17:04;;;;;;;4.20;2.17;;;;;;;;;;5050059;28;20056;-75
2022/04/03 12:19:33;;;;;;;;;;;;;;;;;;5050707;28;20052;-75
2022/04/03 12:22:02;;;;;;;3.53;1.92;;;;;;;;;;5050812;28;19908;-76
2022/04/03 12:24:30;;;;;;;3.63;2.08;;;;;;;;;;5050757;28;20039;-76
2022/04/03 12:27:06;;;;;;;3.40;2.03;;;;;;;;;;5050002;28;20409;-76
2022/04/03 12:29:35;;;;;;;3.75;2.03;;;;;;;;;;5049853;28;20040;-76
2022/04/03 12:32:10;;;;;;;4.30;2.20;;;;;;;;;;5049791;28;20025;-76
2022/04/03 12:34:41;;;;;;;5.18;2.08;;;;;;;;;;5049920;28;20025;-77
2022/04/03 12:37:07;;;;;;;;;;;;;;;;;;5050547;28;20020;-76
2022/04/03 12:39:51;;;;;;;3.63;2.10;;;;;;;;;;5049889;28;19912;-76
2022/04/03 12:42:17;;;;;;;3.67;2.20;;;;;;;;;;5049846;28;20040;-76
2022/04/03 12:45:08;;;;;;;4.32;2.08;;;;;;;;;;5049479;28;20028;-77
2022/04/03 12:47:43;;;;;;;3.45;2.00;;;;;;;;;;5049500;28;20039;-76
2022/04/03 12:50:23;;;;;;;2.80;2.03;;;;;;;;;;5049611;28;20035;-76
2022/04/03 12:52:50;;;;;;;4.35;2.75;;;;;;;;;;5049454;28;20029;-76
2022/04/03 12:55:22;;;;;;;4.82;2.25;;;;;;;;;;5049394;28;20029;-75
2022/04/03 13:00:51;;;;;;;3.25;2.05;;;;;;;;;;5049541;28;20037;-75
2022/04/03 13:03:29;;;;;;;3.17;2.00;;;;;;;;;;5049552;28;20355;-75
2022/04/03 13:05:56;;;;;;;6.57;2.30;;;;;;;;;;5048893;28;20028;-76
2022/04/03 13:08:22;;;;;;;4.07;2.22;;;;;;;;;;5049028;28;20052;-76
2022/04/03 13:10:54;;;;;;;5.18;2.67;;;;;;;;;;5048556;28;20037;-75
2022/04/03 13:13:21;;;;;;;4.13;2.15;;;;;;;;;;5030901;28;20044;-76
2022/04/03 13:15:47;;;;;;;3.90;2.33;;;;;;;;;;5048726;28;20021;-76
2022/04/03 13:18:13;;;;;;;3.42;2.10;;;;;;;;;;5049040;28;20031;-76
2022/04/03 13:20:39;;;;;;;3.42;2.30;;;;;;;;;;5048815;28;20545;-75
2022/04/03 13:23:06;;;;;;;3.60;2.30;;;;;;;;;;5049088;28;20061;-77
2022/04/03 13:25:32;;;;;;;5.25;2.22;;;;;;;;;;5048930;28;20044;-76
2022/04/03 13:27:58;;;;;;;4.53;2.42;;;;;;;;;;5030778;28;20450;-75
2022/04/03 13:30:24;;;;;;;5.10;2.97;;;;;;;;;;5048842;28;20032;-76
2022/04/03 13:32:49;;;;;;;4.22;1.90;;;;;;;;;;5049093;28;20041;-76
2022/04/03 13:35:16;;;;;;;3.83;2.40;;;;;;;;;;5047950;28;20072;-77
2022/04/03 13:37:41;;;;;;;7.45;2.58;;;;;;;;;;5042569;28;20386;-75
2022/04/03 13:40:08;;;;;;;4.30;2.17;;;;;;;;;;5038410;28;20053;-76
2022/04/03 13:42:34;;;;;;;3.75;2.10;;;;;;;;;;5047940;28;20485;-76
2022/04/03 13:44:59;;;;;;;3.15;2.05;;;;;;;;;;5048752;28;20136;-76
2022/04/03 13:47:26;;;;;;;4.18;2.13;;;;;;;;;;5048522;28;20064;-75
2022/04/03 13:49:52;;;;;;;4.70;2.15;;;;;;;;;;5048605;28;20474;-75
2022/04/03 13:52:18;;;;;;;2.95;1.90;;;;;;;;;;5048801;28;20033;-75
2022/04/03 13:54:44;;;;;;;3.00;1.90;;;;;;;;;;5048629;28;20512;-75
2022/04/03 13:57:10;;;;;;;8.40;2.65;;;;;;;;;;5030051;28;20068;-75
2022/04/03 13:59:36;;;;;;;3.75;2.05;;;;;;;;;;5048370;28;20184;-76
2022/04/03 14:02:03;;;;;;;4.00;2.03;;;;;;;;;;5048738;28;20060;-76
2022/04/03 14:04:29;;;;;;;4.65;2.00;;;;;;;;;;5048556;28;20432;-76
2022/04/03 14:06:55;;;;;;;3.13;2.08;;;;;;;;;;5048371;28;20292;-76
2022/04/03 14:09:20;;;;;;;2.85;1.98;;;;;;;;;;5048939;28;20413;-76
2022/04/03 14:11:47;;;;;;;3.53;1.80;;;;;;;;;;5048585;28;20063;-76
2022/04/03 14:14:12;;;;;;;3.92;1.90;;;;;;;;;;5048468;28;20040;-76
2022/04/03 14:16:38;;;;;;;5.63;2.10;;;;;;;;;;5048294;28;20064;-76
2022/04/03 14:19:04;;;;;;;3.17;1.83;;;;;;;;;;5048101;28;20095;-76
2022/04/03 14:21:32;;;;;;;4.55;2.20;;;;;;;;;;5049264;28;20068;-76
2022/04/03 14:23:59;;;;;;;4.90;2.15;;;;;;;;;;5033909;28;20397;-76
2022/04/03 14:26:26;;;;;;;4.18;2.08;;;;;;;;;;5052302;28;20397;-76
2022/04/03 14:28:52;;;;;;;3.65;2.20;;;;;;;;;;5033686;28;20044;-76
2022/04/03 14:31:18;;;;;;;3.08;2.00;;;;;;;;;;5033915;28;20264;-76
2022/04/03 14:33:44;;;;;;;2.92;1.88;;;;;;;;;;5052618;28;20066;-76
2022/04/03 14:36:10;;;;;;;3.10;1.90;;;;;;;;;;5052240;28;20063;-76
2022/04/03 14:38:37;;;;;;;3.42;2.22;;;;;;;;;;5034702;28;20029;-77
2022/04/03 14:41:03;;;;;;;3.63;2.28;;;;;;;;;;5052452;28;20021;-76
2022/04/03 14:43:29;;;;;;;3.10;2.00;;;;;;;;;;5052382;28;20087;-75
2022/04/03 14:45:55;;;;;;;3.38;1.88;;;;;;;;;;5033632;28;20069;-75
2022/04/03 14:48:21;;;;;;;3.40;1.98;;;;;;;;;;5052233;28;20041;-76
2022/04/03 14:50:48;;;;;;;2.90;1.90;;;;;;;;;;5051881;28;20025;-76